createdAt,value
2023-04-04T00:01:52.922Z,101528.47
2023-04-04T00:04:22.559Z,101527.91
2023-04-04T00:06:53.700Z,101525.25
2023-04-04T00:09:22.973Z,101523.72
2023-04-04T00:11:51.748Z,101499.28
2023-04-04T00:14:22.744Z,101517.22
2023-04-04T00:16:53.641Z,101520.31
2023-04-04T00:19:23.011Z,101521.53
2023-04-04T00:21:55.280Z,101515.81
2023-04-04T00:24:25.205Z,101508.66
2023-04-04T00:26:53.603Z,101429.41
2023-04-04T00:29:39.387Z,101463.50
2023-04-04T00:32:19.729Z,101514.41
2023-04-04T00:34:52.871Z,101521.44
2023-04-04T00:37:24.821Z,101487.66
2023-04-04T00:39:57.973Z,101513.09
2023-04-04T00:42:33.988Z,101504.66
2023-04-04T00:45:06.213Z,101465.06
2023-04-04T00:47:40.620Z,101490.59
2023-04-04T00:50:10.576Z,101494.03
2023-04-04T00:52:38.673Z,101499.16
2023-04-04T00:55:10.765Z,101498.03
2023-04-04T00:57:39.245Z,101499.59
2023-04-04T01:00:16.221Z,101502.06
2023-04-04T01:02:45.600Z,101507.47
2023-04-04T01:05:16.120Z,101476.69
2023-04-04T01:07:44.151Z,101499.91
2023-04-04T01:10:12.824Z,101496.78
2023-04-04T01:12:43.242Z,101489.13
2023-04-04T01:15:14.193Z,101495.69
2023-04-04T01:17:45.127Z,101497.75
2023-04-04T01:20:18.746Z,101493.13
2023-04-04T01:22:54.793Z,101496.00
2023-04-04T01:25:32.176Z,101493.69
2023-04-04T01:28:04.859Z,101426.06
2023-04-04T01:30:37.804Z,101474.78
2023-04-04T01:33:15.818Z,101394.03
2023-04-04T01:35:58.042Z,101467.09
2023-04-04T01:38:33.853Z,101495.19
2023-04-04T01:41:09.111Z,101434.94
2023-04-04T01:43:37.506Z,101412.94
2023-04-04T01:46:08.048Z,101421.06
2023-04-04T01:48:42.227Z,101497.22
2023-04-04T01:51:12.697Z,101478.06
2023-04-04T01:53:40.759Z,101492.84
2023-04-04T01:56:13.232Z,101482.44
2023-04-04T01:58:43.768Z,101439.28
2023-04-04T02:01:14.200Z,101478.03
2023-04-04T02:03:47.574Z,101439.13
2023-04-04T02:06:20.557Z,101486.88
2023-04-04T02:08:50.199Z,101472.00
2023-04-04T02:11:26.961Z,101471.78
2023-04-04T02:13:57.904Z,101477.50
2023-04-04T02:16:32.751Z,101495.84
2023-04-04T02:19:02.276Z,101419.00
2023-04-04T02:21:31.074Z,101496.50
2023-04-04T02:24:03.010Z,101455.31
2023-04-04T02:26:34.580Z,101486.44
2023-04-04T02:29:03.240Z,101489.41
2023-04-04T02:31:32.637Z,101484.63
2023-04-04T02:34:04.088Z,101486.53
2023-04-04T02:36:37.058Z,101426.25
2023-04-04T02:39:06.074Z,101459.06
2023-04-04T02:41:37.592Z,101483.25
2023-04-04T02:44:06.208Z,101477.19
2023-04-04T02:46:36.424Z,101470.00
2023-04-04T02:49:08.626Z,101472.44
2023-04-04T02:51:40.942Z,101419.38
2023-04-04T02:54:10.382Z,101470.41
2023-04-04T02:56:42.672Z,101470.28
2023-04-04T02:59:12.576Z,101437.78
2023-04-04T03:01:45.173Z,101455.59
2023-04-04T03:04:18.179Z,101454.44
2023-04-04T03:06:50.290Z,101452.03
2023-04-04T03:09:20.193Z,101456.88
2023-04-04T03:11:52.349Z,101457.72
2023-04-04T03:14:21.080Z,101457.63
2023-04-04T03:16:52.933Z,101415.81
2023-04-04T03:19:25.789Z,101432.19
2023-04-04T03:21:58.902Z,101440.53
2023-04-04T03:24:29.514Z,101456.03
2023-04-04T03:27:01.186Z,101428.38
2023-04-04T03:29:33.912Z,101434.94
2023-04-04T03:32:05.438Z,101407.09
2023-04-04T03:34:38.499Z,101434.44
2023-04-04T03:37:16.174Z,101395.06
2023-04-04T03:39:52.483Z,101420.53
2023-04-04T03:42:22.711Z,101436.63
2023-04-04T03:44:52.721Z,101433.38
2023-04-04T03:47:22.917Z,101408.84
2023-04-04T03:49:54.154Z,101429.81
2023-04-04T03:52:27.603Z,101420.88
2023-04-04T03:54:57.615Z,101369.00
2023-04-04T03:57:28.506Z,101430.31
2023-04-04T03:59:59.482Z,101433.25
2023-04-04T04:02:34.090Z,101429.84
2023-04-04T04:05:05.753Z,101416.53
2023-04-04T04:07:37.336Z,101394.72
2023-04-04T04:10:07.832Z,101430.94
2023-04-04T04:12:43.645Z,101423.53
2023-04-04T04:15:13.603Z,101426.84
2023-04-04T04:17:43.445Z,101417.50
2023-04-04T04:20:14.179Z,101427.06
2023-04-04T04:22:53.836Z,101431.56
2023-04-04T04:25:27.789Z,101416.66
2023-04-04T04:27:58.945Z,101395.59
2023-04-04T04:30:30.660Z,101422.25
2023-04-04T04:33:06.806Z,101424.31
2023-04-04T04:35:40.339Z,101424.31
2023-04-04T04:38:12.709Z,101354.41
2023-04-04T04:40:46.539Z,101422.72
2023-04-04T04:43:26.542Z,101416.06
2023-04-04T04:45:57.919Z,101430.16
2023-04-04T04:48:31.503Z,101431.81
2023-04-04T04:51:00.605Z,101392.81
2023-04-04T04:53:42.193Z,101429.53
2023-04-04T04:56:14.425Z,101354.06
2023-04-04T04:58:49.737Z,101435.72
2023-04-04T05:01:25.683Z,101427.59
2023-04-04T05:03:54.814Z,101414.38
2023-04-04T05:06:28.873Z,101422.09
2023-04-04T05:08:58.109Z,101441.72
2023-04-04T05:11:30.057Z,101411.31
2023-04-04T05:14:05.984Z,101425.88
2023-04-04T05:16:36.480Z,101421.97
2023-04-04T05:19:14.110Z,101436.03
2023-04-04T05:21:45.040Z,101416.25
2023-04-04T05:24:17.478Z,101371.78
2023-04-04T05:26:51.520Z,101426.44
2023-04-04T05:29:31.874Z,101437.56
2023-04-04T05:32:05.478Z,101437.00
2023-04-04T05:34:43.245Z,101434.81
2023-04-04T05:37:13.169Z,101433.16
2023-04-04T05:39:45.520Z,101414.75
2023-04-04T05:42:16.862Z,101448.38
2023-04-04T05:44:48.523Z,101393.00
2023-04-04T05:47:22.249Z,101406.78
2023-04-04T05:50:03.743Z,101447.56
2023-04-04T05:52:50.647Z,101441.81
2023-04-04T05:55:24.716Z,101430.75
2023-04-04T05:58:05.014Z,101416.59
2023-04-04T06:00:36.459Z,101436.19
2023-04-04T06:03:08.812Z,101448.81
2023-04-04T06:05:52.514Z,101453.97
2023-04-04T06:08:21.622Z,101441.94
2023-04-04T06:10:55.613Z,101443.88
2023-04-04T06:13:25.900Z,101443.34
2023-04-04T06:15:57.509Z,101445.34
2023-04-04T06:18:27.834Z,101448.19
2023-04-04T06:20:58.015Z,101443.69
2023-04-04T06:23:27.560Z,101454.47
2023-04-04T06:25:57.785Z,101445.38
2023-04-04T06:28:32.857Z,101446.84
2023-04-04T06:31:09.102Z,101419.63
2023-04-04T06:33:49.304Z,101453.06
2023-04-04T06:36:18.091Z,101450.13
2023-04-04T06:38:48.514Z,101430.97
2023-04-04T06:41:17.875Z,101431.66
2023-04-04T06:43:49.835Z,101452.41
2023-04-04T06:46:27.451Z,101452.56
2023-04-04T06:48:59.394Z,101456.94
2023-04-04T06:51:30.329Z,101443.22
2023-04-04T06:54:04.005Z,101456.06
2023-04-04T06:56:38.317Z,101463.97
2023-04-04T06:59:12.169Z,101460.44
2023-04-04T07:01:46.678Z,101452.94
2023-04-04T07:04:20.038Z,101451.38
2023-04-04T07:06:51.386Z,101438.97
2023-04-04T07:09:29.610Z,101462.06
2023-04-04T07:12:02.028Z,101419.38
2023-04-04T07:14:34.644Z,101456.03
2023-04-04T07:17:24.311Z,101459.34
2023-04-04T07:19:53.941Z,101456.59
2023-04-04T07:22:26.295Z,101464.16
2023-04-04T07:24:58.980Z,101467.94
2023-04-04T07:27:28.792Z,101465.88
2023-04-04T07:29:58.745Z,101474.19
2023-04-04T07:32:43.600Z,101470.63
2023-04-04T07:35:17.583Z,101466.44
2023-04-04T07:41:57.976Z,101440.88
2023-04-04T07:45:04.792Z,101465.69
2023-04-04T07:47:39.980Z,101404.75
2023-04-04T07:50:09.355Z,101468.94
2023-04-04T07:52:38.611Z,101472.47
2023-04-04T07:55:37.926Z,101470.66
2023-04-04T07:58:11.279Z,101468.88
2023-04-04T08:05:19.040Z,101448.47
2023-04-04T08:07:50.436Z,101454.81
2023-04-04T08:10:21.876Z,101450.91
2023-04-04T08:12:50.493Z,101448.81
2023-04-04T08:15:19.746Z,101442.84
2023-04-04T08:17:51.113Z,101448.06
2023-04-04T08:20:23.055Z,101442.31
2023-04-04T08:22:51.971Z,101447.75
2023-04-04T08:25:21.672Z,101441.16
2023-04-04T08:27:52.505Z,101443.00
2023-04-04T08:30:25.045Z,101442.94
2023-04-04T08:32:59.783Z,101445.44
2023-04-04T08:35:30.289Z,101435.13
2023-04-04T08:37:59.031Z,101432.47
2023-04-04T08:40:32.686Z,101424.31
2023-04-04T08:43:06.561Z,101432.94
2023-04-04T08:45:38.541Z,101433.53
2023-04-04T08:48:24.503Z,101418.75
2023-04-04T08:50:58.397Z,101376.59
2023-04-04T08:53:29.821Z,101429.00
2023-04-04T08:56:03.227Z,101423.47
2023-04-04T08:58:39.603Z,101398.13
2023-04-04T09:01:12.414Z,101421.56
2023-04-04T09:03:46.296Z,101422.22
2023-04-04T09:06:22.035Z,101407.28
2023-04-04T09:08:56.055Z,101417.66
2023-04-04T09:11:26.387Z,101420.41
2023-04-04T09:14:02.494Z,101416.25
2023-04-04T09:16:33.123Z,101380.97
2023-04-04T09:19:03.935Z,101390.81
2023-04-04T09:21:35.457Z,101412.03
2023-04-04T09:24:08.908Z,101401.59
2023-04-04T09:26:53.358Z,101416.06
2023-04-04T09:29:29.385Z,101407.31
2023-04-04T09:32:00.334Z,101413.22
2023-04-04T09:34:31.974Z,101386.94
2023-04-04T09:37:13.015Z,101348.34
2023-04-04T09:39:54.355Z,101392.59
2023-04-04T09:42:26.295Z,101398.34
2023-04-04T09:44:57.625Z,101375.69
2023-04-04T09:47:31.690Z,101395.53
2023-04-04T09:50:09.140Z,101398.78
2023-04-04T09:52:41.794Z,101390.91
2023-04-04T09:55:12.629Z,101396.16
2023-04-04T09:57:43.880Z,101397.34
2023-04-04T10:00:19.656Z,101401.31
2023-04-04T10:02:58.817Z,101401.13
2023-04-04T10:05:29.178Z,101385.13
2023-04-04T10:08:00.476Z,101357.16
2023-04-04T10:10:33.242Z,101368.13
2023-04-04T10:13:07.931Z,101407.00
2023-04-04T10:15:38.741Z,101399.69
2023-04-04T10:18:10.149Z,101395.63
2023-04-04T10:20:39.723Z,101407.81
2023-04-04T10:25:57.529Z,101385.59
2023-04-04T10:28:28.790Z,101389.78
2023-04-04T10:31:08.530Z,101314.75
2023-04-04T10:33:47.225Z,101393.00
2023-04-04T10:36:26.330Z,101386.75
2023-04-04T10:39:06.256Z,101390.97
2023-04-04T10:41:37.169Z,101375.94
2023-04-04T10:44:17.315Z,101381.00
2023-04-04T10:46:52.558Z,101376.97
2023-04-04T10:49:24.251Z,101380.16
2023-04-04T10:51:57.564Z,101388.78
2023-04-04T10:54:31.236Z,101381.69
2023-04-04T10:57:01.578Z,101374.06
2023-04-04T10:59:34.350Z,101382.81
2023-04-04T11:02:06.795Z,101354.50
2023-04-04T11:04:35.967Z,101348.75
2023-04-04T11:07:17.664Z,101363.06
2023-04-04T11:10:02.807Z,101364.53
2023-04-04T11:12:34.492Z,101356.25
2023-04-04T11:15:15.871Z,101352.06
2023-04-04T11:18:17.959Z,101354.09
2023-04-04T11:20:58.245Z,101337.19
2023-04-04T11:24:01.185Z,101345.72
2023-04-04T11:26:40.639Z,101349.44
2023-04-04T11:29:14.944Z,101346.06
2023-04-04T11:31:46.239Z,101327.38
2023-04-04T11:34:17.910Z,101332.19
2023-04-04T11:37:05.149Z,101337.69
2023-04-04T11:39:38.319Z,101331.53
2023-04-04T11:42:15.288Z,101297.66
2023-04-04T11:45:03.872Z,101324.31
2023-04-04T11:47:40.492Z,101309.41
2023-04-04T11:50:14.140Z,101296.03
2023-04-04T11:52:44.247Z,101296.84
2023-04-04T11:55:17.218Z,101285.56
2023-04-04T11:57:49.646Z,101308.63
2023-04-04T12:00:35.110Z,101291.72
2023-04-04T12:03:05.169Z,101289.50
2023-04-04T12:05:33.980Z,101295.13
2023-04-04T12:08:06.403Z,101293.97
2023-04-04T12:10:36.861Z,101298.56
2023-04-04T12:13:12.311Z,101298.91
2023-04-04T12:15:43.365Z,101305.66
2023-04-04T12:18:25.087Z,101289.81
2023-04-04T12:20:53.545Z,101286.03
2023-04-04T12:23:22.167Z,101277.25
2023-04-04T12:25:57.952Z,101275.66
2023-04-04T12:28:29.004Z,101270.84
2023-04-04T12:31:06.259Z,101248.84
2023-04-04T12:33:38.279Z,101254.38
2023-04-04T12:36:08.634Z,101259.88
2023-04-04T12:38:57.007Z,101221.22
2023-04-04T12:41:26.936Z,101261.47
2023-04-04T12:44:07.994Z,101252.84
2023-04-04T12:46:48.864Z,101251.88
2023-04-04T12:49:26.068Z,101254.13
2023-04-04T12:52:00.804Z,101253.09
2023-04-04T12:54:32.738Z,101229.78
2023-04-04T12:57:14.201Z,101244.88
2023-04-04T12:59:49.462Z,101247.59
2023-04-04T13:02:22.451Z,101246.28
2023-04-04T13:05:00.728Z,101232.84
2023-04-04T13:07:35.159Z,101232.38
2023-04-04T13:10:12.228Z,101225.34
2023-04-04T13:12:58.940Z,101238.06
2023-04-04T13:15:53.350Z,101237.88
2023-04-04T13:18:27.674Z,101237.31
2023-04-04T13:20:57.185Z,101219.56
2023-04-04T13:23:26.378Z,101200.50
2023-04-04T13:26:20.030Z,101215.22
2023-04-04T13:28:49.459Z,101208.44
2023-04-04T13:31:20.338Z,101214.31
2023-04-04T13:33:51.779Z,101211.59
2023-04-04T13:36:23.627Z,101221.97
2023-04-04T13:38:58.105Z,101200.53
2023-04-04T13:41:28.140Z,101208.75
2023-04-04T13:43:57.782Z,101212.28
2023-04-04T13:46:28.774Z,101190.50
2023-04-04T13:49:03.926Z,101203.03
2023-04-04T13:51:33.422Z,101197.88
2023-04-04T13:54:02.372Z,101192.06
2023-04-04T13:56:33.664Z,101179.84
2023-04-04T13:59:11.529Z,101181.50
2023-04-04T14:01:42.880Z,101173.88
2023-04-04T14:04:23.280Z,101158.31
2023-04-04T14:06:53.858Z,101168.41
2023-04-04T14:09:26.308Z,101171.81
2023-04-04T14:11:56.569Z,101144.50
2023-04-04T14:14:25.376Z,101133.09
2023-04-04T14:17:00.121Z,101160.63
2023-04-04T14:22:20.725Z,101149.63
2023-04-04T14:24:55.007Z,101136.09
2023-04-04T14:27:26.118Z,101126.00
2023-04-04T14:29:58.622Z,101150.06
2023-04-04T14:32:29.564Z,101121.66
2023-04-04T14:35:01.890Z,101083.69
2023-04-04T14:37:32.406Z,101134.47
2023-04-04T14:40:08.824Z,101101.00
2023-04-04T14:42:38.746Z,101117.66
2023-04-04T14:45:12.633Z,101103.09
2023-04-04T14:47:43.227Z,101119.06
2023-04-04T14:50:18.058Z,101118.34
2023-04-04T14:52:51.453Z,101116.78
2023-04-04T14:55:24.289Z,101101.19
2023-04-04T14:58:01.830Z,101100.63
2023-04-04T15:00:32.598Z,101098.88
2023-04-04T15:03:07.308Z,101098.66
2023-04-04T15:05:40.384Z,101102.75
2023-04-04T15:08:09.010Z,101101.56
2023-04-04T15:10:46.962Z,101061.78
2023-04-04T15:13:16.892Z,101109.28
2023-04-04T15:15:45.329Z,101067.88
2023-04-04T15:18:16.488Z,101081.03
2023-04-04T15:20:46.142Z,101077.16
2023-04-04T15:23:18.290Z,101093.41
2023-04-04T15:25:49.201Z,101093.69
2023-04-04T15:28:22.266Z,101085.81
2023-04-04T15:30:51.506Z,101085.59
2023-04-04T15:33:47.872Z,101082.25
2023-04-04T15:36:19.063Z,101076.88
2023-04-04T15:38:49.772Z,101066.06
2023-04-04T15:41:21.143Z,101091.72
2023-04-04T15:43:57.344Z,101044.50
2023-04-04T15:46:30.760Z,101091.81
2023-04-04T15:49:05.155Z,101078.06
2023-04-04T15:51:37.920Z,101074.72
2023-04-04T15:54:08.083Z,101079.13
2023-04-04T15:56:44.112Z,101038.16
2023-04-04T15:59:12.800Z,101082.56
2023-04-04T16:01:42.622Z,101079.06
2023-04-04T16:04:14.733Z,101064.72
2023-04-04T16:06:49.143Z,101081.50
2023-04-04T16:09:21.642Z,101074.97
2023-04-04T16:11:54.136Z,101081.56
2023-04-04T16:14:29.142Z,101039.38
2023-04-04T16:17:02.649Z,101080.78
2023-04-04T16:19:36.052Z,101061.44
2023-04-04T16:22:05.649Z,101069.34
2023-04-04T16:24:34.665Z,101057.53
2023-04-04T16:27:02.724Z,101069.41
2023-04-04T16:29:31.819Z,101056.88
2023-04-04T16:32:02.592Z,101070.56
2023-04-04T16:34:33.586Z,101059.03
2023-04-04T16:37:01.530Z,101065.00
2023-04-04T16:39:35.620Z,101035.94
2023-04-04T16:42:04.221Z,101065.59
2023-04-04T16:44:35.720Z,101043.78
2023-04-04T16:47:04.281Z,101064.84
2023-04-04T16:49:34.536Z,101044.63
2023-04-04T16:52:02.473Z,101022.66
2023-04-04T16:54:32.490Z,101065.19
2023-04-04T16:57:00.897Z,101013.88
2023-04-04T16:59:36.968Z,101059.94
2023-04-04T17:02:08.091Z,101057.94
2023-04-04T17:04:40.328Z,101046.53
2023-04-04T17:07:11.697Z,101023.22
2023-04-04T17:09:41.941Z,101057.41
2023-04-04T17:12:13.227Z,101056.00
2023-04-04T17:14:46.238Z,101028.28
2023-04-04T17:17:14.883Z,101031.44
2023-04-04T17:19:48.557Z,101042.94
2023-04-04T17:22:19.337Z,101072.56
2023-04-04T17:27:35.829Z,101075.00
2023-04-04T17:30:05.032Z,101072.56
2023-04-04T17:32:33.715Z,101029.47
2023-04-04T17:35:05.042Z,101063.78
2023-04-04T17:37:33.324Z,101058.56
2023-04-04T17:40:03.800Z,101056.34
2023-04-04T17:42:32.233Z,101072.84
2023-04-04T17:45:00.913Z,101030.59
2023-04-04T17:47:30.500Z,101068.38
2023-04-04T17:49:58.976Z,101074.06
2023-04-04T17:52:33.477Z,101068.81
2023-04-04T17:55:03.480Z,101074.13
2023-04-04T17:57:34.683Z,101067.34
2023-04-04T18:00:03.075Z,101063.53
2023-04-04T18:02:31.794Z,101026.72
2023-04-04T18:05:00.036Z,101055.53
2023-04-04T18:07:31.375Z,101080.31
2023-04-04T18:10:01.417Z,101084.56
2023-04-04T18:12:30.247Z,101086.44
2023-04-04T18:14:59.494Z,101091.66
2023-04-04T18:17:32.603Z,101085.47
2023-04-04T18:20:04.538Z,100987.69
2023-04-04T18:22:34.735Z,101080.88
2023-04-04T18:25:05.581Z,101094.75
2023-04-04T18:27:33.614Z,101098.13
2023-04-04T18:30:04.064Z,101054.41
2023-04-04T18:32:35.441Z,101099.38
2023-04-04T18:35:06.430Z,101096.72
2023-04-04T18:37:39.437Z,101099.47
2023-04-04T18:40:12.501Z,101091.19
2023-04-04T18:42:43.368Z,101111.44
2023-04-04T18:45:33.668Z,101119.38
2023-04-04T18:48:09.176Z,101096.47
2023-04-04T18:50:39.293Z,101061.84
2023-04-04T18:53:09.222Z,101125.31
2023-04-04T18:55:41.320Z,101096.22
2023-04-04T18:58:10.113Z,101131.72
2023-04-04T19:00:39.139Z,101122.50
2023-04-04T19:03:11.910Z,101131.22
2023-04-04T19:05:48.200Z,101130.06
2023-04-04T19:08:19.780Z,101110.72
2023-04-04T19:10:51.505Z,101128.38
2023-04-04T19:13:20.076Z,101125.69
2023-04-04T19:15:48.450Z,101134.31
2023-04-04T19:18:17.324Z,101133.97
2023-04-04T19:20:46.108Z,101137.00
2023-04-04T19:23:15.889Z,101130.09
2023-04-04T19:25:47.176Z,101111.41
2023-04-04T19:28:16.796Z,101022.19
2023-04-04T19:30:48.112Z,101084.97
2023-04-04T19:33:18.734Z,101108.88
2023-04-04T19:35:53.690Z,101104.84
2023-04-04T19:38:27.162Z,101124.38
2023-04-04T19:41:01.770Z,101122.84
2023-04-04T19:43:31.860Z,101106.81
2023-04-04T19:46:06.167Z,101119.09
2023-04-04T19:48:46.302Z,101096.84
2023-04-04T19:51:49.387Z,101070.22
2023-04-04T19:54:41.465Z,101115.69
2023-04-04T19:57:22.936Z,101114.97
2023-04-04T20:00:10.167Z,101121.72
2023-04-04T20:02:58.181Z,101061.88
2023-04-04T20:05:59.972Z,101104.16
2023-04-04T20:08:36.597Z,101128.53
2023-04-04T20:11:08.654Z,101079.72
2023-04-04T20:13:40.975Z,101136.59
2023-04-04T20:16:15.887Z,101134.91
2023-04-04T20:18:47.402Z,101080.31
2023-04-04T20:21:17.148Z,101116.66
2023-04-04T20:23:48.303Z,101120.31
2023-04-04T20:27:02.956Z,101144.66
2023-04-04T20:29:35.143Z,101120.91
2023-04-04T20:32:10.371Z,101083.41
2023-04-04T20:34:43.658Z,101131.16
2023-04-04T20:37:16.659Z,101131.97
2023-04-04T20:39:49.782Z,101120.34
2023-04-04T20:42:34.356Z,101111.59
2023-04-04T20:45:46.721Z,101130.41
2023-04-04T20:48:40.893Z,101139.78
2023-04-04T20:51:28.604Z,101143.78
2023-04-04T20:53:58.556Z,101141.63
2023-04-04T20:56:52.392Z,101141.13
2023-04-04T20:59:32.564Z,101146.81
2023-04-04T21:02:09.513Z,101147.66
2023-04-04T21:04:40.443Z,101146.00
2023-04-04T21:07:10.465Z,101133.72
2023-04-04T21:09:38.871Z,101126.06
2023-04-04T21:12:08.743Z,101155.56
2023-04-04T21:14:38.264Z,101150.03
2023-04-04T21:17:13.507Z,101114.50
2023-04-04T21:19:41.704Z,101123.13
2023-04-04T21:22:10.023Z,101131.56
2023-04-04T21:24:38.139Z,101142.41
2023-04-04T21:27:31.507Z,101083.56
2023-04-04T21:29:59.441Z,101126.38
2023-04-04T21:32:31.810Z,101143.53
2023-04-04T21:35:01.650Z,101152.25
2023-04-04T21:37:31.725Z,101146.34
2023-04-04T21:40:04.704Z,101139.09
2023-04-04T21:42:33.072Z,101144.63
2023-04-04T21:45:07.992Z,101146.88
2023-04-04T21:47:38.146Z,101141.16
2023-04-04T21:50:08.399Z,101140.66
2023-04-04T21:52:41.538Z,101140.47
2023-04-04T21:55:13.423Z,101140.81
2023-04-04T21:57:42.198Z,101125.91
2023-04-04T22:00:12.708Z,101144.25
2023-04-04T22:02:42.592Z,101136.13
2023-04-04T22:05:13.443Z,101118.34
2023-04-04T22:07:41.544Z,101145.91
2023-04-04T22:10:11.288Z,101124.84
2023-04-04T22:12:40.086Z,101125.84
2023-04-04T22:15:11.949Z,101143.19
2023-04-04T22:17:40.291Z,101151.78
2023-04-04T22:20:15.687Z,101137.28
2023-04-04T22:22:48.608Z,101137.00
2023-04-04T22:25:18.330Z,101148.03
2023-04-04T22:27:50.703Z,101152.03
2023-04-04T22:30:19.179Z,101152.16
2023-04-04T22:32:50.072Z,101145.19
2023-04-04T22:35:20.042Z,101138.50
2023-04-04T22:37:48.096Z,101091.28
2023-04-04T22:40:27.074Z,101116.75
2023-04-04T22:42:58.650Z,101096.66
2023-04-04T22:45:29.558Z,101085.84
2023-04-04T22:48:02.326Z,101087.25
2023-04-04T22:50:35.796Z,101144.13
2023-04-04T22:53:05.332Z,101139.16
2023-04-04T22:55:36.591Z,101145.03
2023-04-04T22:58:05.703Z,101107.47
2023-04-04T23:00:34.013Z,101144.44
2023-04-04T23:03:02.738Z,101131.47
2023-04-04T23:05:33.375Z,101116.91
2023-04-04T23:08:05.087Z,101093.00
2023-04-04T23:10:34.701Z,101052.97
2023-04-04T23:13:03.182Z,101123.06
2023-04-04T23:15:39.078Z,101086.28
2023-04-04T23:18:12.797Z,101128.56
2023-04-04T23:20:44.398Z,101078.50
2023-04-04T23:23:12.404Z,101129.88
2023-04-04T23:25:42.473Z,101086.28
2023-04-04T23:28:13.820Z,101115.72
2023-04-04T23:30:42.725Z,101109.50
2023-04-04T23:33:13.544Z,101125.06
2023-04-04T23:35:43.338Z,101125.00
2023-04-04T23:38:18.293Z,101116.44
2023-04-04T23:40:46.301Z,101047.38
2023-04-04T23:43:16.111Z,101031.34
2023-04-04T23:45:45.639Z,101102.72
2023-04-04T23:48:17.430Z,101125.88
2023-04-04T23:50:46.946Z,101117.59
2023-04-04T23:53:15.514Z,101123.34
2023-04-04T23:55:43.595Z,101107.81
2023-04-04T23:58:11.470Z,101108.78
